createdAt,value
2022-09-10T00:01:28.276Z,17.10
2022-09-10T00:03:56.030Z,17.30
2022-09-10T00:06:27.961Z,17.20
2022-09-10T00:08:59.232Z,17.20
2022-09-10T00:11:31.790Z,17.10
2022-09-10T00:14:00.835Z,17.20
2022-09-10T00:16:28.743Z,17.10
2022-09-10T00:18:57.972Z,17.10
2022-09-10T00:21:25.289Z,17.00
2022-09-10T00:23:52.383Z,17.00
2022-09-10T00:26:25.305Z,17.20
2022-09-10T00:28:55.147Z,17.00
2022-09-10T00:31:23.419Z,16.90
2022-09-10T00:33:52.721Z,17.20
2022-09-10T00:36:21.826Z,17.10
2022-09-10T00:38:50.547Z,17.20
2022-09-10T00:41:19.338Z,17.10
2022-09-10T00:43:50.126Z,17.10
2022-09-10T00:46:43.507Z,17.20
2022-09-10T00:49:19.091Z,17.20
2022-09-10T00:51:47.921Z,17.20
2022-09-10T00:54:17.776Z,17.10
2022-09-10T00:56:45.494Z,17.20
2022-09-10T00:59:16.750Z,17.20
2022-09-10T01:01:43.630Z,17.10
2022-09-10T01:04:11.034Z,17.10
2022-09-10T01:06:40.442Z,17.10
2022-09-10T01:09:08.771Z,17.20
2022-09-10T01:12:13.065Z,17.20
2022-09-10T01:15:00.910Z,17.10
2022-09-10T01:17:54.248Z,17.10
2022-09-10T01:20:24.904Z,17.20
2022-09-10T01:23:06.920Z,17.20
2022-09-10T01:26:10.898Z,17.20
2022-09-10T01:28:52.365Z,17.20
2022-09-10T01:31:39.709Z,17.30
2022-09-10T01:34:41.331Z,17.30
2022-09-10T01:37:21.513Z,17.30
2022-09-10T01:39:51.095Z,17.30
2022-09-10T01:42:18.594Z,17.20
2022-09-10T01:44:50.502Z,17.20
2022-09-10T01:48:04.015Z,17.30
2022-09-10T01:51:01.164Z,17.30
2022-09-10T01:53:51.010Z,17.40
2022-09-10T01:56:45.719Z,17.30
2022-09-10T01:59:34.379Z,17.30
2022-09-10T02:02:10.429Z,17.30
2022-09-10T02:04:38.033Z,17.30
2022-09-10T02:07:07.133Z,17.30
2022-09-10T02:09:34.428Z,17.30
2022-09-10T02:12:02.286Z,17.30
2022-09-10T02:14:55.645Z,17.30
2022-09-10T02:17:55.930Z,17.30
2022-09-10T02:20:23.616Z,17.30
2022-09-10T02:22:58.546Z,17.40
2022-09-10T02:25:27.586Z,17.50
2022-09-10T02:27:57.577Z,17.40
2022-09-10T02:30:24.857Z,17.40
2022-09-10T02:32:52.308Z,17.40
2022-09-10T02:35:20.953Z,17.40
2022-09-10T02:37:50.620Z,17.40
2022-09-10T02:40:21.088Z,17.50
2022-09-10T02:42:48.268Z,17.50
2022-09-10T02:45:21.180Z,17.50
2022-09-10T02:47:49.003Z,17.60
2022-09-10T02:50:17.418Z,17.60
2022-09-10T02:52:46.347Z,17.50
2022-09-10T02:55:14.376Z,17.50
2022-09-10T02:57:43.679Z,17.50
2022-09-10T03:00:11.539Z,17.50
2022-09-10T03:02:38.845Z,17.60
2022-09-10T03:05:07.765Z,17.50
2022-09-10T03:07:35.012Z,17.50
2022-09-10T03:10:01.956Z,17.50
2022-09-10T03:12:29.104Z,17.50
2022-09-10T03:14:59.061Z,17.40
2022-09-10T03:17:26.555Z,17.50
2022-09-10T03:19:53.806Z,17.50
2022-09-10T03:22:21.921Z,17.50
2022-09-10T03:24:50.255Z,17.50
2022-09-10T03:27:18.137Z,17.60
2022-09-10T03:29:45.281Z,17.70
2022-09-10T03:32:14.261Z,17.60
2022-09-10T03:34:41.240Z,17.60
2022-09-10T03:37:08.376Z,17.60
2022-09-10T03:39:36.269Z,17.60
2022-09-10T03:42:05.404Z,17.50
2022-09-10T03:44:33.706Z,17.50
2022-09-10T03:47:01.702Z,17.50
2022-09-10T03:49:29.067Z,17.50
2022-09-10T03:51:56.299Z,17.50
2022-09-10T03:54:24.739Z,17.50
2022-09-10T03:56:52.040Z,17.50
2022-09-10T03:59:19.433Z,17.50
2022-09-10T04:01:47.281Z,17.60
2022-09-10T04:04:15.097Z,17.50
2022-09-10T04:06:43.041Z,17.50
2022-09-10T04:09:11.535Z,17.50
2022-09-10T04:11:38.640Z,17.50
2022-09-10T04:14:07.888Z,17.50
2022-09-10T04:16:37.788Z,17.50
2022-09-10T04:19:06.399Z,17.50
2022-09-10T04:21:35.399Z,17.60
2022-09-10T04:24:03.141Z,17.60
2022-09-10T04:26:30.428Z,17.60
2022-09-10T04:28:57.299Z,17.60
2022-09-10T04:31:24.339Z,17.70
2022-09-10T04:33:55.435Z,17.60
2022-09-10T04:36:25.845Z,17.50
2022-09-10T04:38:53.206Z,17.50
2022-09-10T04:41:20.607Z,17.60
2022-09-10T04:43:48.490Z,17.50
2022-09-10T04:46:16.051Z,17.50
2022-09-10T04:48:43.421Z,17.60
2022-09-10T04:51:16.503Z,17.50
2022-09-10T04:53:46.014Z,17.50
2022-09-10T04:56:13.716Z,17.50
2022-09-10T04:58:42.049Z,17.50
2022-09-10T05:01:09.986Z,17.60
2022-09-10T05:03:37.721Z,17.50
2022-09-10T05:06:06.602Z,17.50
2022-09-10T05:08:34.885Z,17.50
2022-09-10T05:11:02.892Z,17.50
2022-09-10T05:13:31.732Z,17.60
2022-09-10T05:16:00.318Z,17.60
2022-09-10T05:18:27.794Z,17.60
2022-09-10T05:20:56.742Z,17.60
2022-09-10T05:23:24.412Z,17.50
2022-09-10T05:25:54.049Z,17.50
2022-09-10T05:28:22.680Z,17.60
2022-09-10T05:30:51.891Z,17.60
2022-09-10T05:33:22.372Z,17.60
2022-09-10T05:35:51.813Z,17.60
2022-09-10T05:38:19.878Z,17.60
2022-09-10T05:40:48.132Z,17.50
2022-09-10T05:43:15.113Z,17.60
2022-09-10T05:45:43.737Z,17.60
2022-09-10T05:48:11.158Z,17.60
2022-09-10T05:50:38.612Z,17.60
2022-09-10T05:53:05.950Z,17.70
2022-09-10T05:55:33.341Z,17.70
2022-09-10T05:58:01.194Z,17.70
2022-09-10T06:00:28.750Z,17.70
2022-09-10T06:03:00.246Z,17.70
2022-09-10T06:05:35.460Z,17.70
2022-09-10T06:08:06.640Z,17.80
2022-09-10T06:10:37.565Z,17.80
2022-09-10T06:13:04.578Z,17.80
2022-09-10T06:15:33.226Z,17.80
2022-09-10T06:18:01.834Z,17.80
2022-09-10T06:20:29.356Z,17.80
2022-09-10T06:22:56.741Z,17.80
2022-09-10T06:25:24.257Z,17.80
2022-09-10T06:27:51.707Z,17.80
2022-09-10T06:30:20.795Z,17.90
2022-09-10T06:32:48.543Z,17.90
2022-09-10T06:35:16.001Z,17.80
2022-09-10T06:37:44.255Z,17.90
2022-09-10T06:40:13.415Z,17.80
2022-09-10T06:42:42.433Z,17.90
2022-09-10T06:45:13.154Z,17.90
2022-09-10T06:48:36.992Z,18.00
2022-09-10T06:50:57.521Z,18.00
2022-09-10T06:53:30.369Z,18.10
2022-09-10T06:56:00.393Z,18.10
2022-09-10T06:58:32.308Z,18.10
2022-09-10T07:00:59.490Z,18.10
2022-09-10T07:03:26.824Z,18.00
2022-09-10T07:05:55.863Z,18.00
2022-09-10T07:08:27.372Z,18.10
2022-09-10T07:11:04.811Z,18.10
2022-09-10T07:13:32.648Z,18.20
2022-09-10T07:16:01.219Z,18.30
2022-09-10T07:18:29.845Z,18.20
2022-09-10T07:21:16.481Z,18.20
2022-09-10T07:23:48.504Z,18.30
2022-09-10T07:26:19.696Z,18.20
2022-09-10T07:28:52.609Z,18.20
2022-09-10T07:31:29.855Z,18.10
2022-09-10T07:34:03.868Z,18.20
2022-09-10T07:36:31.552Z,18.20
2022-09-10T07:39:04.146Z,18.10
2022-09-10T07:41:36.225Z,18.10
2022-09-10T07:44:07.131Z,18.10
2022-09-10T07:46:39.207Z,18.00
2022-09-10T07:49:09.644Z,18.00
2022-09-10T07:51:38.444Z,17.90
2022-09-10T07:54:06.842Z,17.90
2022-09-10T07:56:38.358Z,17.90
2022-09-10T07:59:08.577Z,17.80
2022-09-10T08:01:45.780Z,17.90
2022-09-10T08:04:15.525Z,17.90
2022-09-10T08:06:42.872Z,17.90
2022-09-10T08:09:09.960Z,17.80
2022-09-10T08:11:42.815Z,17.80
2022-09-10T08:14:13.504Z,17.80
2022-09-10T08:16:44.443Z,17.80
2022-09-10T08:19:18.182Z,17.80
2022-09-10T08:21:47.596Z,17.80
2022-09-10T08:24:19.733Z,17.70
2022-09-10T08:26:50.048Z,17.60
2022-09-10T08:29:18.365Z,17.60
2022-09-10T08:31:47.697Z,17.60
2022-09-10T08:34:22.545Z,17.60
2022-09-10T08:36:57.455Z,17.50
2022-09-10T08:39:24.822Z,17.40
2022-09-10T08:42:05.580Z,17.40
2022-09-10T08:44:49.916Z,17.30
2022-09-10T08:47:30.306Z,17.30
2022-09-10T08:50:13.203Z,17.30
2022-09-10T08:52:49.431Z,17.30
2022-09-10T08:55:31.928Z,17.30
2022-09-10T08:58:15.844Z,17.30
2022-09-10T09:00:46.606Z,17.20
2022-09-10T09:03:42.803Z,17.20
2022-09-10T09:06:30.256Z,17.20
2022-09-10T09:09:00.947Z,17.20
2022-09-10T09:11:46.081Z,17.20
2022-09-10T09:14:25.049Z,17.20
2022-09-10T09:17:14.844Z,17.30
2022-09-10T09:19:55.631Z,17.30
2022-09-10T09:22:42.111Z,17.20
2022-09-10T09:25:25.187Z,17.20
2022-09-10T09:27:56.508Z,17.30
2022-09-10T09:30:38.375Z,17.30
2022-09-10T09:33:16.562Z,17.30
2022-09-10T09:36:03.314Z,17.20
2022-09-10T09:38:45.779Z,17.30
2022-09-10T09:41:25.875Z,17.20
2022-09-10T09:43:58.844Z,17.30
2022-09-10T09:46:27.119Z,17.30
2022-09-10T09:49:01.212Z,17.30
2022-09-10T09:51:35.651Z,17.40
2022-09-10T09:57:01.712Z,17.60
2022-09-10T09:59:31.679Z,17.50
2022-09-10T10:02:26.322Z,17.50
2022-09-10T10:05:07.288Z,17.70
2022-09-10T10:07:36.442Z,17.80
2022-09-10T10:10:07.506Z,17.80
2022-09-10T10:12:37.503Z,17.90
2022-09-10T10:15:04.922Z,18.00
2022-09-10T10:17:37.772Z,18.20
2022-09-10T10:20:12.131Z,18.20
2022-09-10T10:22:48.794Z,18.10
2022-09-10T10:25:43.115Z,18.00
2022-09-10T10:28:24.294Z,18.20
2022-09-10T10:30:56.050Z,18.20
2022-09-10T10:33:28.745Z,18.30
2022-09-10T10:35:59.867Z,18.40
2022-09-10T10:38:47.181Z,18.40
2022-09-10T10:41:33.306Z,18.40
2022-09-10T10:44:35.196Z,18.50
2022-09-10T10:47:28.598Z,18.50
2022-09-10T10:50:11.546Z,18.50
2022-09-10T10:52:47.135Z,18.60
2022-09-10T10:55:27.918Z,18.60
2022-09-10T10:58:26.413Z,18.60
2022-09-10T11:00:59.151Z,18.60
2022-09-10T11:03:51.432Z,18.50
2022-09-10T11:06:24.674Z,18.60
2022-09-10T11:09:13.958Z,18.50
2022-09-10T11:11:53.108Z,18.40
2022-09-10T11:14:29.189Z,18.50
2022-09-10T11:17:06.033Z,18.40
2022-09-10T11:19:37.330Z,18.30
2022-09-10T11:22:24.409Z,18.30
2022-09-10T11:25:00.623Z,18.30
2022-09-10T11:27:35.808Z,18.10
2022-09-10T11:30:17.421Z,18.10
2022-09-10T11:33:11.392Z,18.10
2022-09-10T11:35:44.590Z,18.10
2022-09-10T11:38:22.484Z,18.10
2022-09-10T11:41:11.321Z,18.10
2022-09-10T11:43:56.227Z,18.10
2022-09-10T11:46:35.818Z,18.00
2022-09-10T11:49:37.150Z,17.90
2022-09-10T11:52:04.330Z,17.90
2022-09-10T11:54:35.906Z,17.90
2022-09-10T11:57:08.764Z,17.90
2022-09-10T11:59:54.181Z,18.00
2022-09-10T12:02:27.133Z,18.10
2022-09-10T12:05:02.862Z,18.20
2022-09-10T12:07:53.808Z,18.30
2022-09-10T12:10:31.594Z,18.30
2022-09-10T12:12:59.295Z,18.30
2022-09-10T12:15:34.533Z,18.30
2022-09-10T12:18:13.631Z,18.40
2022-09-10T12:21:08.761Z,18.40
2022-09-10T12:23:42.396Z,18.50
2022-09-10T12:26:18.042Z,18.80
2022-09-10T12:28:53.741Z,18.80
2022-09-10T12:31:22.615Z,18.70
2022-09-10T12:33:51.221Z,18.80
2022-09-10T12:36:27.531Z,18.70
2022-09-10T12:39:28.684Z,18.70
2022-09-10T12:42:23.601Z,18.50
2022-09-10T12:44:50.608Z,18.50
2022-09-10T12:47:17.458Z,18.40
2022-09-10T12:50:06.892Z,18.50
2022-09-10T12:52:51.844Z,18.60
2022-09-10T12:55:43.627Z,18.70
2022-09-10T12:58:23.329Z,18.70
2022-09-10T13:00:55.990Z,18.80
2022-09-10T13:03:27.103Z,18.70
2022-09-10T13:06:00.262Z,18.80
2022-09-10T13:08:33.262Z,18.80
2022-09-10T13:11:01.624Z,18.80
2022-09-10T13:13:42.246Z,18.70
2022-09-10T13:16:28.021Z,18.70
2022-09-10T13:19:15.244Z,18.70
2022-09-10T13:21:44.833Z,18.60
2022-09-10T13:24:36.266Z,18.60
2022-09-10T13:27:17.968Z,18.80
2022-09-10T13:29:55.872Z,18.80
2022-09-10T13:32:31.486Z,18.80
2022-09-10T13:35:19.586Z,18.70
2022-09-10T13:38:05.243Z,18.80
2022-09-10T13:40:40.660Z,18.90
2022-09-10T13:43:23.466Z,19.00
2022-09-10T13:45:55.357Z,19.10
2022-09-10T13:48:37.790Z,19.00
2022-09-10T13:51:19.696Z,19.20
2022-09-10T13:53:51.721Z,19.10
2022-09-10T13:56:30.855Z,19.20
2022-09-10T13:59:01.066Z,19.10
2022-09-10T14:01:52.418Z,19.10
2022-09-10T14:04:35.755Z,19.20
2022-09-10T14:07:14.104Z,19.30
2022-09-10T14:09:46.778Z,19.50
2022-09-10T14:12:16.242Z,19.50
2022-09-10T14:14:47.832Z,19.50
2022-09-10T14:17:21.578Z,19.60
2022-09-10T14:19:58.090Z,19.70
2022-09-10T14:22:26.528Z,19.80
2022-09-10T14:24:59.860Z,19.90
2022-09-10T14:27:31.171Z,19.90
2022-09-10T14:30:18.388Z,19.70
2022-09-10T14:32:46.419Z,19.40
2022-09-10T14:35:43.054Z,19.40
2022-09-10T14:38:26.956Z,19.40
2022-09-10T14:41:04.372Z,19.60
2022-09-10T14:43:39.152Z,19.60
2022-09-10T14:46:10.575Z,19.70
2022-09-10T14:49:01.465Z,19.60
2022-09-10T14:51:28.435Z,19.60
2022-09-10T14:53:58.370Z,19.60
2022-09-10T14:56:33.557Z,19.70
2022-09-10T14:59:13.712Z,19.80
2022-09-10T15:01:46.533Z,19.90
2022-09-10T15:04:16.721Z,19.90
2022-09-10T15:06:44.144Z,19.90
2022-09-10T15:09:12.956Z,20.10
2022-09-10T15:12:03.440Z,20.10
2022-09-10T15:14:32.481Z,20.20
2022-09-10T15:16:59.669Z,20.40
2022-09-10T15:19:26.911Z,20.60
2022-09-10T15:21:54.616Z,20.80
2022-09-10T15:24:23.088Z,20.90
2022-09-10T15:26:50.674Z,20.90
2022-09-10T15:29:18.014Z,20.90
2022-09-10T15:31:45.101Z,20.80
2022-09-10T15:34:12.342Z,20.70
2022-09-10T15:36:40.837Z,20.70
2022-09-10T15:39:11.492Z,20.60
2022-09-10T15:41:43.599Z,20.40
2022-09-10T15:44:11.081Z,20.70
2022-09-10T15:46:42.136Z,20.70
2022-09-10T15:49:09.464Z,20.80
2022-09-10T15:51:36.380Z,20.80
2022-09-10T15:54:05.371Z,20.60
2022-09-10T15:56:33.069Z,20.50
2022-09-10T15:59:00.951Z,20.70
2022-09-10T16:01:28.940Z,20.80
2022-09-10T16:03:58.195Z,21.10
2022-09-10T16:06:30.716Z,21.30
2022-09-10T16:09:03.422Z,21.60
2022-09-10T16:11:32.864Z,21.80
2022-09-10T16:14:04.642Z,21.80
2022-09-10T16:16:32.728Z,21.60
2022-09-10T16:19:00.956Z,21.50
2022-09-10T16:21:31.172Z,21.40
2022-09-10T16:24:00.279Z,21.30
2022-09-10T16:26:34.539Z,21.50
2022-09-10T16:29:07.036Z,21.60
2022-09-10T16:31:35.955Z,21.70
2022-09-10T16:34:06.020Z,21.80
2022-09-10T16:36:34.870Z,21.60
2022-09-10T16:39:02.248Z,21.60
2022-09-10T16:41:30.120Z,21.70
2022-09-10T16:43:59.369Z,21.80
2022-09-10T16:46:27.813Z,21.80
2022-09-10T16:48:56.060Z,21.70
2022-09-10T16:51:25.770Z,21.90
2022-09-10T16:53:56.994Z,22.10
2022-09-10T16:56:25.815Z,22.30
2022-09-10T16:58:53.673Z,22.40
2022-09-10T17:01:21.443Z,22.50
2022-09-10T17:03:49.928Z,22.60
2022-09-10T17:06:27.874Z,22.50
2022-09-10T17:08:57.707Z,22.50
2022-09-10T17:11:26.806Z,22.40
2022-09-10T17:13:57.023Z,22.30
2022-09-10T17:16:36.693Z,22.20
2022-09-10T17:19:09.727Z,21.90
2022-09-10T17:21:38.794Z,21.70
2022-09-10T17:24:08.226Z,21.70
2022-09-10T17:26:37.206Z,21.50
2022-09-10T17:29:10.024Z,21.20
2022-09-10T17:31:37.257Z,21.10
2022-09-10T17:34:04.764Z,21.10
2022-09-10T17:36:32.529Z,21.10
2022-09-10T17:39:00.142Z,21.10
2022-09-10T17:41:29.614Z,21.20
2022-09-10T17:43:59.605Z,21.20
2022-09-10T17:46:27.447Z,21.20
2022-09-10T17:48:55.308Z,21.00
2022-09-10T17:51:25.355Z,20.80
2022-09-10T17:53:55.336Z,20.50
2022-09-10T17:56:24.454Z,20.50
2022-09-10T17:58:59.347Z,20.40
2022-09-10T18:01:28.873Z,20.40
2022-09-10T18:03:56.573Z,20.50
2022-09-10T18:06:25.268Z,20.50
2022-09-10T18:08:52.775Z,20.50
2022-09-10T18:11:22.516Z,20.40
2022-09-10T18:13:52.099Z,20.30
2022-09-10T18:16:21.920Z,20.30
2022-09-10T18:18:55.604Z,20.20
2022-09-10T18:21:24.213Z,20.20
2022-09-10T18:23:56.309Z,20.10
2022-09-10T18:26:26.035Z,20.00
2022-09-10T18:29:01.935Z,20.00
2022-09-10T18:31:32.047Z,20.10
2022-09-10T18:34:00.435Z,20.10
2022-09-10T18:36:28.998Z,20.10
2022-09-10T18:38:55.966Z,20.10
2022-09-10T18:45:10.102Z,20.00
2022-09-10T18:47:44.509Z,19.90
2022-09-10T18:50:13.445Z,19.80
2022-09-10T18:52:41.652Z,19.80
2022-09-10T18:55:09.164Z,19.70
2022-09-10T18:57:36.771Z,19.70
2022-09-10T19:00:04.423Z,19.70
2022-09-10T19:02:31.407Z,19.70
2022-09-10T19:05:11.348Z,19.70
2022-09-10T19:07:39.154Z,19.60
2022-09-10T19:10:07.179Z,19.60
2022-09-10T19:12:34.543Z,19.60
2022-09-10T19:15:01.729Z,19.60
2022-09-10T19:17:28.701Z,19.50
2022-09-10T19:19:55.778Z,19.50
2022-09-10T19:22:22.719Z,19.50
2022-09-10T19:24:55.047Z,19.40
2022-09-10T19:27:23.309Z,19.50
2022-09-10T19:29:50.306Z,19.40
2022-09-10T19:32:19.909Z,19.40
2022-09-10T19:34:49.951Z,19.40
2022-09-10T19:37:17.289Z,19.30
2022-09-10T19:39:44.746Z,19.30
2022-09-10T19:42:12.666Z,19.30
2022-09-10T19:44:39.586Z,19.30
2022-09-10T19:47:06.630Z,19.30
2022-09-10T19:49:34.412Z,19.30
2022-09-10T19:52:01.652Z,19.30
2022-09-10T19:54:30.421Z,19.30
2022-09-10T19:56:57.486Z,19.30
2022-09-10T19:59:24.621Z,19.30
2022-09-10T20:01:51.751Z,19.30
2022-09-10T20:04:18.945Z,19.30
2022-09-10T20:06:47.658Z,19.30
2022-09-10T20:09:14.670Z,19.30
2022-09-10T20:11:41.833Z,19.20
2022-09-10T20:14:12.987Z,19.30
2022-09-10T20:16:42.933Z,19.20
2022-09-10T20:19:18.254Z,19.20
2022-09-10T20:21:48.050Z,19.20
2022-09-10T20:24:15.865Z,19.20
2022-09-10T20:26:43.951Z,19.20
2022-09-10T20:29:12.937Z,19.20
2022-09-10T20:31:41.524Z,19.20
2022-09-10T20:34:11.933Z,19.20
2022-09-10T20:36:42.293Z,19.10
2022-09-10T20:39:11.988Z,19.10
2022-09-10T20:41:39.946Z,19.10
2022-09-10T20:44:10.057Z,19.10
2022-09-10T20:46:38.153Z,19.00
2022-09-10T20:49:05.253Z,19.00
2022-09-10T20:51:35.647Z,19.10
2022-09-10T20:54:04.385Z,19.00
2022-09-10T20:56:31.635Z,19.00
2022-09-10T20:58:59.433Z,19.00
2022-09-10T21:01:28.498Z,19.00
2022-09-10T21:03:59.558Z,19.00
2022-09-10T21:06:29.195Z,18.90
2022-09-10T21:08:56.746Z,18.90
2022-09-10T21:11:25.908Z,18.90
2022-09-10T21:13:58.360Z,19.00
2022-09-10T21:16:31.368Z,19.00
2022-09-10T21:19:01.140Z,19.00
2022-09-10T21:21:30.423Z,19.10
2022-09-10T21:24:00.126Z,19.10
2022-09-10T21:26:29.491Z,19.20
2022-09-10T21:28:59.259Z,19.10
2022-09-10T21:31:27.406Z,19.10
2022-09-10T21:34:03.043Z,19.10
2022-09-10T21:36:31.951Z,19.10
2022-09-10T21:39:01.822Z,18.90
2022-09-10T21:41:35.521Z,18.80
2022-09-10T21:44:05.249Z,18.80
2022-09-10T21:46:34.136Z,18.70
2022-09-10T21:49:02.303Z,18.70
2022-09-10T21:51:29.578Z,18.80
2022-09-10T21:53:58.315Z,18.80
2022-09-10T21:56:27.694Z,18.70
2022-09-10T21:58:56.747Z,18.70
2022-09-10T22:01:26.529Z,18.70
2022-09-10T22:04:00.513Z,18.70
2022-09-10T22:06:30.492Z,18.70
2022-09-10T22:09:00.714Z,18.70
2022-09-10T22:11:31.732Z,18.60
2022-09-10T22:14:14.075Z,18.60
2022-09-10T22:16:41.050Z,18.60
2022-09-10T22:19:11.785Z,18.50
2022-09-10T22:21:38.758Z,18.50
2022-09-10T22:24:07.141Z,18.50
2022-09-10T22:26:34.765Z,18.50
2022-09-10T22:29:03.274Z,18.40
2022-09-10T22:31:33.259Z,18.40
2022-09-10T22:34:13.476Z,18.40
2022-09-10T22:36:42.366Z,18.40
2022-09-10T22:39:13.505Z,18.40
2022-09-10T22:41:41.693Z,18.40
2022-09-10T22:44:09.726Z,18.40
2022-09-10T22:46:37.783Z,18.40
2022-09-10T22:49:06.361Z,18.50
2022-09-10T22:51:36.768Z,18.50
2022-09-10T22:54:05.082Z,18.50
2022-09-10T22:56:32.744Z,18.40
2022-09-10T22:59:00.412Z,18.50
2022-09-10T23:01:35.513Z,18.40
2022-09-10T23:04:04.087Z,18.40
2022-09-10T23:06:32.685Z,18.30
2022-09-10T23:09:07.263Z,18.30
2022-09-10T23:11:36.258Z,18.30
2022-09-10T23:14:06.892Z,18.30
2022-09-10T23:16:38.886Z,18.20
2022-09-10T23:19:12.974Z,18.20
2022-09-10T23:21:42.721Z,18.20
2022-09-10T23:24:13.383Z,18.30
2022-09-10T23:26:41.028Z,18.20
2022-09-10T23:29:08.218Z,18.20
2022-09-10T23:31:37.818Z,18.10
2022-09-10T23:34:07.891Z,18.20
2022-09-10T23:36:37.511Z,18.20
2022-09-10T23:39:21.854Z,18.10
2022-09-10T23:41:50.439Z,18.10
2022-09-10T23:44:17.690Z,18.00
2022-09-10T23:46:44.971Z,18.00
2022-09-10T23:49:12.668Z,18.00
2022-09-10T23:51:39.922Z,18.00
2022-09-10T23:54:07.305Z,18.00
2022-09-10T23:56:34.671Z,17.90
2022-09-10T23:59:03.606Z,18.00
